Time;durP1;ratioP1;P1;durP2;ratioP2;P2;SDS_P1;SDS_P2;PMS_P1;PMS_P2;Temp;Humidity;BMP_temperature;BMP_pressure;BME280_temperature;BME280_humidity;BME280_pressure;Samples;Min_cycle;Max_cycle;Signal;HPM_P1;HPM_P2
2023/06/14 00:01:21;;;;;;;7.10;6.40;;;;;;;;;;5003011;28;20425;-49
2023/06/14 00:03:48;;;;;;;7.20;6.50;;;;;;;;;;4999015;28;20470;-49
2023/06/14 00:06:14;;;;;;;6.80;6.20;;;;;;;;;;4998997;28;20433;-48
2023/06/14 00:08:40;;;;;;;7.30;6.43;;;;;;;;;;5003328;28;20834;-49
2023/06/14 00:11:07;;;;;;;9.53;5.73;;;;;;;;;;5003953;28;20903;-48
2023/06/14 00:13:33;;;;;;;9.13;6.73;;;;;;;;;;5002027;28;20673;-48
2023/06/14 00:15:59;;;;;;;6.93;6.03;;;;;;;;;;5005368;28;20449;-48
2023/06/14 00:18:29;;;;;;;6.97;5.90;;;;;;;;;;5001947;28;20432;-49
2023/06/14 00:20:55;;;;;;;7.27;6.67;;;;;;;;;;4997482;28;20441;-49
2023/06/14 00:23:21;;;;;;;7.47;6.70;;;;;;;;;;4998059;28;20551;-48
2023/06/14 00:25:47;;;;;;;7.37;6.70;;;;;;;;;;5002119;28;20415;-50
2023/06/14 00:28:13;;;;;;;10.43;7.63;;;;;;;;;;5003700;28;20808;-50
2023/06/14 00:30:40;;;;;;;6.63;6.00;;;;;;;;;;5000637;28;20560;-48
2023/06/14 00:33:06;;;;;;;7.00;6.30;;;;;;;;;;5003592;28;20423;-50
2023/06/14 00:35:32;;;;;;;6.83;6.23;;;;;;;;;;5001068;28;20949;-51
2023/06/14 00:37:59;;;;;;;7.23;5.70;;;;;;;;;;4998164;28;20437;-50
2023/06/14 00:40:25;;;;;;;14.40;6.60;;;;;;;;;;5009165;28;20461;-50
2023/06/14 00:42:51;;;;;;;8.00;6.47;;;;;;;;;;5006959;28;20416;-50
2023/06/14 00:45:17;;;;;;;7.60;6.63;;;;;;;;;;5008598;28;20406;-50
2023/06/14 00:47:43;;;;;;;8.10;5.90;;;;;;;;;;5007398;28;20400;-51
2023/06/14 00:50:11;;;;;;;7.40;6.60;;;;;;;;;;5007723;28;20914;-50
2023/06/14 00:52:37;;;;;;;8.33;5.97;;;;;;;;;;5006860;28;20411;-51
2023/06/14 00:55:05;;;;;;;6.03;5.53;;;;;;;;;;5006688;28;20432;-49
2023/06/14 00:57:31;;;;;;;7.63;6.87;;;;;;;;;;5010898;28;20501;-50
2023/06/14 00:59:57;;;;;;;7.47;5.90;;;;;;;;;;5005449;28;20420;-50
2023/06/14 01:02:24;;;;;;;6.30;5.70;;;;;;;;;;5005680;28;20426;-49
2023/06/14 01:04:50;;;;;;;6.87;6.17;;;;;;;;;;5006414;28;20459;-51
2023/06/14 01:07:29;;;;;;;7.17;6.10;;;;;;;;;;5006535;28;20442;-50
2023/06/14 01:10:20;;;;;;;6.40;5.80;;;;;;;;;;5007876;28;20997;-49
2023/06/14 01:13:03;;;;;;;6.80;6.10;;;;;;;;;;5012281;28;20415;-49
2023/06/14 01:15:31;;;;;;;7.40;5.20;;;;;;;;;;5006483;28;20902;-49
2023/06/14 01:18:02;;;;;;;5.47;4.97;;;;;;;;;;5008738;28;20407;-50
2023/06/14 01:20:29;;;;;;;6.00;5.50;;;;;;;;;;5005579;28;20410;-50
2023/06/14 01:22:55;;;;;;;6.60;6.00;;;;;;;;;;5007513;28;20903;-50
2023/06/14 01:25:22;;;;;;;7.10;5.60;;;;;;;;;;5009498;28;20485;-50
2023/06/14 01:27:59;;;;;;;6.70;5.40;;;;;;;;;;5005745;28;20612;-50
2023/06/14 01:30:25;;;;;;;6.20;5.60;;;;;;;;;;5005987;28;20415;-50
2023/06/14 01:32:52;;;;;;;10.07;5.87;;;;;;;;;;5007079;28;20444;-50
2023/06/14 01:35:18;;;;;;;6.63;6.10;;;;;;;;;;5006361;28;20486;-50
2023/06/14 01:37:44;;;;;;;6.30;5.70;;;;;;;;;;5005861;28;20512;-50
2023/06/14 01:40:11;;;;;;;5.93;5.20;;;;;;;;;;5011695;28;20443;-51
2023/06/14 01:42:38;;;;;;;6.57;5.87;;;;;;;;;;5010809;28;20404;-51
2023/06/14 01:45:07;;;;;;;5.57;5.17;;;;;;;;;;5004455;28;20940;-50
2023/06/14 01:47:35;;;;;;;7.00;6.27;;;;;;;;;;5003792;28;20442;-50
2023/06/14 01:50:02;;;;;;;7.20;6.23;;;;;;;;;;5002524;28;20417;-50
2023/06/14 01:52:28;;;;;;;8.50;5.73;;;;;;;;;;5003240;28;20409;-50
2023/06/14 01:54:54;;;;;;;7.70;5.47;;;;;;;;;;5005074;28;20531;-50
2023/06/14 01:57:21;;;;;;;6.77;5.67;;;;;;;;;;5005968;28;20910;-50
2023/06/14 01:59:48;;;;;;;7.10;6.10;;;;;;;;;;5006204;28;20384;-50
2023/06/14 02:02:14;;;;;;;6.90;6.20;;;;;;;;;;4999254;28;20389;-50
2023/06/14 02:04:40;;;;;;;8.10;5.83;;;;;;;;;;5001958;28;20834;-50
2023/06/14 02:07:06;;;;;;;7.57;5.73;;;;;;;;;;4998996;28;20412;-50
2023/06/14 02:09:33;;;;;;;6.97;5.90;;;;;;;;;;5010267;28;20426;-49
2023/06/14 02:11:59;;;;;;;8.93;6.30;;;;;;;;;;5003288;28;20546;-50
2023/06/14 02:14:26;;;;;;;6.30;5.70;;;;;;;;;;5004987;28;21076;-50
2023/06/14 02:16:52;;;;;;;6.93;5.70;;;;;;;;;;5000144;28;20977;-50
2023/06/14 02:19:19;;;;;;;7.03;5.77;;;;;;;;;;5001450;28;20400;-49
2023/06/14 02:21:45;;;;;;;6.93;5.60;;;;;;;;;;5010724;28;20396;-50
2023/06/14 02:24:11;;;;;;;8.53;5.77;;;;;;;;;;5005698;28;20470;-49
2023/06/14 02:26:37;;;;;;;9.07;5.33;;;;;;;;;;5003757;28;20525;-49
2023/06/14 02:29:05;;;;;;;6.00;5.40;;;;;;;;;;5006568;28;20420;-49
2023/06/14 02:31:31;;;;;;;5.97;5.50;;;;;;;;;;5003876;28;20425;-50
2023/06/14 02:33:57;;;;;;;6.23;5.50;;;;;;;;;;4996701;28;20438;-49
2023/06/14 02:36:23;;;;;;;5.90;5.30;;;;;;;;;;5005811;28;20862;-50
2023/06/14 02:38:49;;;;;;;8.07;6.20;;;;;;;;;;5003312;28;20419;-50
2023/06/14 02:41:15;;;;;;;10.53;5.73;;;;;;;;;;5004696;28;21043;-50
2023/06/14 02:43:41;;;;;;;10.00;6.40;;;;;;;;;;5002484;28;20872;-49
2023/06/14 02:46:07;;;;;;;13.63;6.30;;;;;;;;;;5004247;28;20446;-50
2023/06/14 02:48:33;;;;;;;11.03;6.80;;;;;;;;;;5002327;28;20414;-50
2023/06/14 02:50:59;;;;;;;10.90;5.17;;;;;;;;;;5001571;28;20421;-50
2023/06/14 02:53:25;;;;;;;16.50;6.60;;;;;;;;;;5005873;28;20429;-50
2023/06/14 02:55:52;;;;;;;10.03;5.63;;;;;;;;;;5000388;28;20429;-50
2023/06/14 02:58:18;;;;;;;31.27;6.00;;;;;;;;;;5002718;28;20757;-50
2023/06/14 03:00:44;;;;;;;10.07;5.10;;;;;;;;;;5002459;28;20393;-50
2023/06/14 03:03:13;;;;;;;7.10;5.57;;;;;;;;;;5001879;28;20953;-50
2023/06/14 03:05:49;;;;;;;7.17;4.93;;;;;;;;;;5004495;28;20897;-50
2023/06/14 03:08:16;;;;;;;5.63;5.13;;;;;;;;;;5006132;28;20379;-49
2023/06/14 03:10:51;;;;;;;6.40;5.27;;;;;;;;;;5005847;28;20456;-51
2023/06/14 03:13:20;;;;;;;13.20;6.50;;;;;;;;;;5001004;28;20471;-50
2023/06/14 03:15:47;;;;;;;6.43;5.73;;;;;;;;;;4997905;28;20420;-49
2023/06/14 03:18:14;;;;;;;6.63;5.93;;;;;;;;;;5003958;28;20465;-50
2023/06/14 03:20:42;;;;;;;6.63;4.83;;;;;;;;;;5001457;28;20435;-50
2023/06/14 03:23:08;;;;;;;6.43;4.90;;;;;;;;;;5004759;28;20426;-50
2023/06/14 03:25:35;;;;;;;7.90;6.17;;;;;;;;;;5001681;28;20424;-50
2023/06/14 03:28:02;;;;;;;9.30;5.23;;;;;;;;;;5004109;28;20409;-50
2023/06/14 03:30:28;;;;;;;6.13;5.17;;;;;;;;;;5000783;28;20453;-50
2023/06/14 03:32:55;;;;;;;6.40;4.80;;;;;;;;;;5002602;28;20449;-49
2023/06/14 03:35:21;;;;;;;5.00;4.60;;;;;;;;;;5004814;28;20410;-50
2023/06/14 03:37:47;;;;;;;6.13;5.40;;;;;;;;;;5000808;28;20452;-50
2023/06/14 03:40:14;;;;;;;10.23;5.33;;;;;;;;;;5002471;28;20466;-49
2023/06/14 03:42:40;;;;;;;5.80;5.20;;;;;;;;;;5001284;28;20975;-51
2023/06/14 03:45:06;;;;;;;5.77;5.27;;;;;;;;;;4996865;28;20476;-50
2023/06/14 03:47:33;;;;;;;5.57;4.50;;;;;;;;;;5004830;28;20414;-49
2023/06/14 03:50:00;;;;;;;6.73;4.57;;;;;;;;;;5006919;28;20426;-50
2023/06/14 03:52:26;;;;;;;5.47;4.50;;;;;;;;;;5003819;28;20421;-50
2023/06/14 03:54:52;;;;;;;6.20;5.00;;;;;;;;;;4998772;28;20439;-49
2023/06/14 03:57:18;;;;;;;4.60;4.10;;;;;;;;;;5003585;28;20415;-49
2023/06/14 03:59:44;;;;;;;3.63;3.23;;;;;;;;;;5004027;28;20418;-49
2023/06/14 04:02:10;;;;;;;4.23;3.83;;;;;;;;;;5004284;28;20428;-49
2023/06/14 04:04:36;;;;;;;5.57;4.30;;;;;;;;;;4998642;28;20476;-50
2023/06/14 04:07:03;;;;;;;4.53;4.13;;;;;;;;;;4992388;28;20417;-50
2023/06/14 04:09:32;;;;;;;5.40;4.40;;;;;;;;;;5000662;28;20421;-50
2023/06/14 04:11:58;;;;;;;5.00;4.40;;;;;;;;;;5000208;28;20402;-50
2023/06/14 04:14:24;;;;;;;4.50;3.77;;;;;;;;;;4997559;28;20440;-50
2023/06/14 04:16:50;;;;;;;5.00;4.50;;;;;;;;;;5007431;28;20417;-49
2023/06/14 04:19:16;;;;;;;5.20;4.37;;;;;;;;;;5002579;28;20431;-50
2023/06/14 04:21:42;;;;;;;4.83;4.43;;;;;;;;;;4999435;28;20413;-50
2023/06/14 04:24:13;;;;;;;5.80;4.33;;;;;;;;;;5007781;28;20477;-51
2023/06/14 04:26:44;;;;;;;5.00;4.50;;;;;;;;;;5000660;28;20758;-50
2023/06/14 04:29:14;;;;;;;10.20;4.43;;;;;;;;;;4993120;28;20537;-50
2023/06/14 04:31:40;;;;;;;5.93;4.33;;;;;;;;;;5000675;28;20409;-50
2023/06/14 04:34:06;;;;;;;5.63;4.23;;;;;;;;;;5005464;28;20436;-50
2023/06/14 04:36:38;;;;;;;5.90;4.40;;;;;;;;;;5001542;28;20897;-50
2023/06/14 04:39:04;;;;;;;4.80;4.20;;;;;;;;;;4996863;28;20450;-48
2023/06/14 04:41:31;;;;;;;4.10;3.70;;;;;;;;;;5002524;28;20796;-50
2023/06/14 04:44:01;;;;;;;6.83;4.10;;;;;;;;;;5002586;28;20817;-51
2023/06/14 04:46:28;;;;;;;5.63;4.87;;;;;;;;;;5002693;28;20405;-50
2023/06/14 04:48:54;;;;;;;4.37;3.97;;;;;;;;;;5002550;28;20391;-50
2023/06/14 04:51:22;;;;;;;4.13;3.83;;;;;;;;;;5001787;28;20739;-50
2023/06/14 04:53:49;;;;;;;4.83;4.40;;;;;;;;;;5002479;28;20888;-50
2023/06/14 04:56:16;;;;;;;7.03;4.67;;;;;;;;;;4997510;28;20416;-50
2023/06/14 04:58:43;;;;;;;6.13;4.00;;;;;;;;;;5003064;28;20960;-50
2023/06/14 05:01:09;;;;;;;4.40;3.60;;;;;;;;;;5001533;28;20452;-50
2023/06/14 05:03:35;;;;;;;4.80;4.00;;;;;;;;;;4996377;28;20474;-50
2023/06/14 05:06:01;;;;;;;4.60;4.20;;;;;;;;;;5004081;28;20827;-50
2023/06/14 05:08:27;;;;;;;4.53;4.13;;;;;;;;;;5000126;28;20445;-50
2023/06/14 05:10:53;;;;;;;6.40;4.87;;;;;;;;;;5000587;28;20405;-49
2023/06/14 05:13:21;;;;;;;7.60;4.93;;;;;;;;;;5000049;28;20903;-49
2023/06/14 05:15:47;;;;;;;10.20;4.67;;;;;;;;;;5005620;28;20409;-50
2023/06/14 05:18:15;;;;;;;5.37;4.70;;;;;;;;;;5000740;28;20409;-50
2023/06/14 05:20:41;;;;;;;6.33;4.90;;;;;;;;;;4996766;28;20385;-50
2023/06/14 05:23:08;;;;;;;6.10;3.90;;;;;;;;;;5000125;28;20462;-50
2023/06/14 05:25:34;;;;;;;4.50;4.13;;;;;;;;;;5002455;28;20802;-50
2023/06/14 05:28:00;;;;;;;4.30;3.90;;;;;;;;;;5006471;28;20805;-50
2023/06/14 05:30:26;;;;;;;4.90;4.50;;;;;;;;;;5003798;28;20427;-50
2023/06/14 05:32:52;;;;;;;5.40;4.37;;;;;;;;;;5007732;28;20414;-50
2023/06/14 05:35:18;;;;;;;6.50;4.27;;;;;;;;;;5003164;28;20429;-49
2023/06/14 05:37:44;;;;;;;5.77;3.57;;;;;;;;;;4999555;28;20443;-50
2023/06/14 05:40:11;;;;;;;4.87;3.63;;;;;;;;;;5006711;28;21016;-50
2023/06/14 05:42:37;;;;;;;4.80;4.40;;;;;;;;;;5004861;28;20407;-49
2023/06/14 05:45:03;;;;;;;4.37;3.97;;;;;;;;;;5006369;28;20607;-50
2023/06/14 05:47:29;;;;;;;5.27;4.10;;;;;;;;;;5004271;28;20429;-50
2023/06/14 05:49:55;;;;;;;4.17;3.87;;;;;;;;;;5005593;28;20417;-50
2023/06/14 05:52:21;;;;;;;7.50;3.93;;;;;;;;;;5001840;28;20903;-51
2023/06/14 05:54:47;;;;;;;9.57;4.07;;;;;;;;;;5005401;28;20486;-50
2023/06/14 05:57:13;;;;;;;4.67;4.00;;;;;;;;;;4999434;28;20409;-50
2023/06/14 05:59:40;;;;;;;4.03;3.70;;;;;;;;;;5006276;28;20489;-51
2023/06/14 06:02:06;;;;;;;7.37;4.03;;;;;;;;;;5002660;28;20419;-51
2023/06/14 06:04:31;;;;;;;6.77;4.50;;;;;;;;;;5001957;28;20456;-50
2023/06/14 06:06:57;;;;;;;6.50;3.80;;;;;;;;;;5010149;28;20415;-50
2023/06/14 06:09:23;;;;;;;4.00;3.70;;;;;;;;;;5004879;28;20415;-50
2023/06/14 06:11:49;;;;;;;4.03;3.63;;;;;;;;;;5001822;28;20449;-50
2023/06/14 06:14:15;;;;;;;6.17;3.80;;;;;;;;;;4994675;28;20468;-51
2023/06/14 06:16:41;;;;;;;4.37;3.97;;;;;;;;;;5002051;28;20833;-50
2023/06/14 06:19:07;;;;;;;4.73;3.77;;;;;;;;;;5002996;28;20403;-50
2023/06/14 06:21:33;;;;;;;5.73;3.97;;;;;;;;;;4997335;28;20467;-51
2023/06/14 06:24:03;;;;;;;5.50;3.97;;;;;;;;;;5003018;28;20476;-51
2023/06/14 06:26:29;;;;;;;4.03;3.70;;;;;;;;;;5003465;28;20420;-51
2023/06/14 06:28:57;;;;;;;4.33;3.10;;;;;;;;;;5004833;28;20401;-50
2023/06/14 06:31:23;;;;;;;5.80;3.50;;;;;;;;;;5010891;28;20775;-51
2023/06/14 06:33:48;;;;;;;6.93;3.50;;;;;;;;;;5004427;28;20523;-51
2023/06/14 06:36:14;;;;;;;4.90;3.60;;;;;;;;;;5000165;28;20440;-51
2023/06/14 06:38:41;;;;;;;3.83;3.53;;;;;;;;;;5005154;28;20415;-51
2023/06/14 06:41:07;;;;;;;6.27;3.40;;;;;;;;;;5004191;28;20415;-50
2023/06/14 06:43:33;;;;;;;3.83;3.10;;;;;;;;;;5003045;28;20462;-51
2023/06/14 06:45:59;;;;;;;3.37;3.07;;;;;;;;;;5004889;28;20402;-50
2023/06/14 06:48:25;;;;;;;3.23;2.93;;;;;;;;;;5002489;28;20432;-50
2023/06/14 06:50:52;;;;;;;3.37;3.07;;;;;;;;;;5001182;28;20920;-51
2023/06/14 06:53:18;;;;;;;3.00;2.80;;;;;;;;;;4999221;28;20463;-51
2023/06/14 06:55:44;;;;;;;6.47;3.33;;;;;;;;;;5004424;28;20414;-51
2023/06/14 06:58:10;;;;;;;3.77;3.30;;;;;;;;;;5003133;28;20972;-50
2023/06/14 07:00:36;;;;;;;8.03;3.20;;;;;;;;;;5000825;28;20455;-50
2023/06/14 07:03:03;;;;;;;3.70;3.40;;;;;;;;;;5003397;28;20419;-51
2023/06/14 07:05:30;;;;;;;3.10;2.70;;;;;;;;;;5001853;28;20431;-50
2023/06/14 07:07:56;;;;;;;11.70;6.63;;;;;;;;;;5004014;28;20406;-51
2023/06/14 07:10:24;;;;;;;7.67;3.43;;;;;;;;;;5005798;28;20416;-50
2023/06/14 07:12:50;;;;;;;3.63;3.33;;;;;;;;;;5006745;28;20919;-51
2023/06/14 07:15:16;;;;;;;7.03;3.23;;;;;;;;;;5001964;28;20434;-51
2023/06/14 07:17:42;;;;;;;3.50;2.97;;;;;;;;;;4999576;28;20436;-50
2023/06/14 07:20:11;;;;;;;3.33;3.07;;;;;;;;;;5001146;28;20970;-50
2023/06/14 07:22:37;;;;;;;14.23;3.30;;;;;;;;;;5001400;28;20419;-51
2023/06/14 07:25:03;;;;;;;4.30;2.93;;;;;;;;;;5004315;28;20467;-51
2023/06/14 07:27:30;;;;;;;3.00;2.80;;;;;;;;;;5003226;28;20422;-50
2023/06/14 07:29:55;;;;;;;7.77;3.13;;;;;;;;;;5004686;28;20431;-51
2023/06/14 07:32:21;;;;;;;3.30;2.47;;;;;;;;;;5000896;28;20418;-51
2023/06/14 07:34:47;;;;;;;5.97;2.93;;;;;;;;;;4996814;28;20451;-51
2023/06/14 07:37:13;;;;;;;6.50;3.23;;;;;;;;;;5004513;28;20421;-50
2023/06/14 07:39:39;;;;;;;3.50;3.20;;;;;;;;;;5001374;28;20441;-50
2023/06/14 07:42:06;;;;;;;3.30;3.00;;;;;;;;;;5001142;28;20410;-50
2023/06/14 07:44:32;;;;;;;2.83;2.60;;;;;;;;;;4998326;28;20493;-50
2023/06/14 07:46:59;;;;;;;3.60;2.30;;;;;;;;;;5001025;28;20419;-51
2023/06/14 07:49:25;;;;;;;4.77;3.00;;;;;;;;;;4999510;28;20447;-51
2023/06/14 07:51:53;;;;;;;3.70;3.40;;;;;;;;;;5002512;28;20572;-51
2023/06/14 07:54:19;;;;;;;4.57;3.70;;;;;;;;;;5003531;28;20474;-51
2023/06/14 07:56:45;;;;;;;2.73;2.53;;;;;;;;;;4999832;28;20512;-50
2023/06/14 07:59:11;;;;;;;7.00;3.23;;;;;;;;;;5007852;28;20799;-52
2023/06/14 08:01:37;;;;;;;8.07;2.77;;;;;;;;;;5000921;28;20988;-51
2023/06/14 08:04:03;;;;;;;3.43;3.07;;;;;;;;;;5001145;28;20479;-51
2023/06/14 08:06:28;;;;;;;4.60;3.00;;;;;;;;;;5000509;28;20779;-52
2023/06/14 08:08:55;;;;;;;3.33;2.93;;;;;;;;;;5003717;28;20416;-52
2023/06/14 08:11:20;;;;;;;10.50;2.80;;;;;;;;;;5004137;28;20412;-51
2023/06/14 08:13:46;;;;;;;3.93;2.80;;;;;;;;;;4998032;28;20447;-51
2023/06/14 08:16:12;;;;;;;3.20;2.30;;;;;;;;;;5000415;28;20420;-52
2023/06/14 08:18:38;;;;;;;2.40;2.20;;;;;;;;;;5000585;28;20412;-51
2023/06/14 08:21:04;;;;;;;7.10;2.30;;;;;;;;;;5000292;28;20865;-51
2023/06/14 08:23:30;;;;;;;4.83;2.10;;;;;;;;;;5000123;28;20681;-51
2023/06/14 08:25:57;;;;;;;2.40;2.20;;;;;;;;;;5004380;28;20617;-52
2023/06/14 08:28:24;;;;;;;2.47;1.93;;;;;;;;;;5000675;28;20497;-51
2023/06/14 08:30:51;;;;;;;3.07;2.17;;;;;;;;;;4996129;28;20780;-51
2023/06/14 08:33:17;;;;;;;4.77;2.27;;;;;;;;;;5003768;28;20415;-51
2023/06/14 08:35:43;;;;;;;2.50;2.30;;;;;;;;;;4994913;28;20914;-51
2023/06/14 08:38:10;;;;;;;2.40;2.20;;;;;;;;;;5002610;28;20475;-52
2023/06/14 08:40:38;;;;;;;2.70;2.20;;;;;;;;;;4996632;28;20748;-52
2023/06/14 08:43:04;;;;;;;2.27;2.17;;;;;;;;;;4997789;28;20446;-52
2023/06/14 08:45:30;;;;;;;3.73;2.30;;;;;;;;;;4999698;28;20472;-51
2023/06/14 08:47:59;;;;;;;2.80;2.13;;;;;;;;;;5001253;28;20407;-51
2023/06/14 08:50:26;;;;;;;2.43;2.23;;;;;;;;;;5003998;28;20410;-52
2023/06/14 08:52:57;;;;;;;3.73;2.07;;;;;;;;;;4999573;28;20494;-52
2023/06/14 08:55:27;;;;;;;8.30;2.37;;;;;;;;;;5000125;28;20473;-51
2023/06/14 08:57:54;;;;;;;2.47;2.00;;;;;;;;;;5001079;28;20411;-52
2023/06/14 09:00:20;;;;;;;2.87;2.67;;;;;;;;;;5004027;28;20903;-52
2023/06/14 09:02:47;;;;;;;2.80;1.97;;;;;;;;;;5007330;28;20430;-52
2023/06/14 09:05:13;;;;;;;1.73;1.50;;;;;;;;;;5003924;28;21109;-52
2023/06/14 09:07:43;;;;;;;1.97;1.70;;;;;;;;;;5004269;28;20507;-52
2023/06/14 09:10:14;;;;;;;2.23;1.73;;;;;;;;;;4995697;28;20412;-52
2023/06/14 09:12:40;;;;;;;2.80;1.53;;;;;;;;;;4995601;28;20396;-52
2023/06/14 09:15:08;;;;;;;3.07;1.87;;;;;;;;;;4994491;28;20661;-52
2023/06/14 09:17:35;;;;;;;3.73;2.33;;;;;;;;;;4995704;28;20510;-51
2023/06/14 09:20:03;;;;;;;1.67;1.57;;;;;;;;;;4995877;28;20781;-52
2023/06/14 09:22:30;;;;;;;2.10;2.00;;;;;;;;;;4995761;28;20423;-52
2023/06/14 09:24:56;;;;;;;8.73;2.03;;;;;;;;;;4995397;28;20473;-52
2023/06/14 09:27:22;;;;;;;1.80;1.70;;;;;;;;;;4995191;28;20749;-52
2023/06/14 09:29:48;;;;;;;1.73;1.63;;;;;;;;;;4994148;28;20431;-52
2023/06/14 09:32:14;;;;;;;2.27;1.40;;;;;;;;;;5000243;28;20427;-52
2023/06/14 09:34:40;;;;;;;1.87;1.50;;;;;;;;;;5006553;28;21027;-52
2023/06/14 09:37:06;;;;;;;1.70;1.60;;;;;;;;;;5003386;28;20416;-52
2023/06/14 09:39:32;;;;;;;1.73;1.63;;;;;;;;;;5008667;28;20517;-52
2023/06/14 09:41:58;;;;;;;2.50;1.57;;;;;;;;;;5003449;28;20904;-51
2023/06/14 09:44:28;;;;;;;4.90;1.80;;;;;;;;;;4998481;28;20974;-52
2023/06/14 09:46:56;;;;;;;2.27;2.07;;;;;;;;;;4995246;28;20415;-52
2023/06/14 09:49:22;;;;;;;3.90;3.53;;;;;;;;;;4995060;28;20404;-52
2023/06/14 09:51:51;;;;;;;2.00;1.90;;;;;;;;;;4995105;28;20918;-52
2023/06/14 09:54:20;;;;;;;1.93;1.70;;;;;;;;;;4993983;28;21108;-52
2023/06/14 09:56:47;;;;;;;2.63;1.77;;;;;;;;;;4993769;28;20435;-52
2023/06/14 09:59:13;;;;;;;2.57;2.10;;;;;;;;;;5002995;28;20427;-52
2023/06/14 10:01:43;;;;;;;2.90;1.77;;;;;;;;;;4994946;28;20470;-52
2023/06/14 10:04:10;;;;;;;3.20;2.07;;;;;;;;;;4994562;28;20829;-51
2023/06/14 10:06:45;;;;;;;2.10;1.90;;;;;;;;;;4994794;28;20404;-52
2023/06/14 10:09:12;;;;;;;3.93;2.10;;;;;;;;;;4994676;28;20427;-51
2023/06/14 10:11:43;;;;;;;4.00;1.80;;;;;;;;;;4993710;28;20856;-52
2023/06/14 10:14:10;;;;;;;1.70;1.60;;;;;;;;;;5002958;28;20440;-53
2023/06/14 10:16:39;;;;;;;2.57;1.90;;;;;;;;;;5003703;28;20411;-53
2023/06/14 10:19:05;;;;;;;1.90;1.80;;;;;;;;;;4994874;28;20466;-52
2023/06/14 10:21:34;;;;;;;2.30;1.90;;;;;;;;;;4999039;28;20431;-53
2023/06/14 10:24:01;;;;;;;1.60;1.50;;;;;;;;;;5004964;28;20992;-52
2023/06/14 10:26:27;;;;;;;2.07;1.97;;;;;;;;;;5002534;28;20446;-53
2023/06/14 10:29:11;;;;;;;2.33;1.67;;;;;;;;;;5003909;28;20404;-52
2023/06/14 10:31:42;;;;;;;1.83;1.73;;;;;;;;;;4993572;28;20412;-52
2023/06/14 10:34:08;;;;;;;3.57;1.80;;;;;;;;;;4994887;28;21087;-52
2023/06/14 10:36:35;;;;;;;2.07;1.63;;;;;;;;;;5002723;28;20908;-52
2023/06/14 10:39:04;;;;;;;2.50;1.60;;;;;;;;;;5007029;28;20411;-53
2023/06/14 10:41:30;;;;;;;1.63;1.53;;;;;;;;;;4994845;28;20550;-53
2023/06/14 10:44:29;;;;;;;2.57;1.80;;;;;;;;;;4993956;28;20541;-52
2023/06/14 10:46:55;;;;;;;7.87;1.80;;;;;;;;;;4961243;28;20846;-53
2023/06/14 10:49:41;;;;;;;1.80;1.50;;;;;;;;;;4991483;28;20424;-53
2023/06/14 10:52:14;;;;;;;3.57;1.63;;;;;;;;;;4994185;28;20412;-53
2023/06/14 10:54:55;;;;;;;1.23;1.13;;;;;;;;;;4997002;28;20515;-53
2023/06/14 10:57:21;;;;;;;3.83;1.47;;;;;;;;;;5004697;28;20418;-52
2023/06/14 10:59:47;;;;;;;1.70;1.60;;;;;;;;;;5005050;28;20769;-52
2023/06/14 11:02:46;;;;;;;3.50;1.40;;;;;;;;;;5005233;28;20778;-52
2023/06/14 11:05:15;;;;;;;9.10;1.40;;;;;;;;;;5003993;28;20467;-53
2023/06/14 11:07:59;;;;;;;3.13;1.40;;;;;;;;;;4998932;28;20478;-52
2023/06/14 11:10:37;;;;;;;1.70;1.60;;;;;;;;;;5002024;28;20458;-52
2023/06/14 11:13:03;;;;;;;1.50;1.40;;;;;;;;;;5003337;28;20786;-52
2023/06/14 11:15:33;;;;;;;2.50;1.83;;;;;;;;;;5001524;28;20444;-52
2023/06/14 11:18:09;;;;;;;1.40;1.30;;;;;;;;;;5001431;28;20427;-52
2023/06/14 11:20:36;;;;;;;3.20;1.63;;;;;;;;;;4992458;28;20482;-52
2023/06/14 11:23:02;;;;;;;10.40;1.70;;;;;;;;;;4991543;28;20416;-53
2023/06/14 11:25:28;;;;;;;1.97;1.87;;;;;;;;;;4983093;28;20463;-52
2023/06/14 11:27:58;;;;;;;1.77;1.67;;;;;;;;;;5002227;28;20480;-52
2023/06/14 11:30:28;;;;;;;2.80;1.90;;;;;;;;;;4993342;28;20416;-51
2023/06/14 11:32:54;;;;;;;3.30;1.70;;;;;;;;;;5000605;28;20799;-52
2023/06/14 11:35:25;;;;;;;2.27;2.00;;;;;;;;;;4986774;28;20939;-52
2023/06/14 11:37:58;;;;;;;2.77;2.00;;;;;;;;;;4995920;28;20405;-51
2023/06/14 11:40:24;;;;;;;5.53;2.13;;;;;;;;;;4993522;28;20419;-51
2023/06/14 11:42:51;;;;;;;3.50;1.70;;;;;;;;;;5001265;28;20412;-51
2023/06/14 11:45:18;;;;;;;7.67;2.37;;;;;;;;;;4999934;28;20470;-52
2023/06/14 11:47:44;;;;;;;2.57;2.27;;;;;;;;;;5001185;28;20452;-51
2023/06/14 11:50:11;;;;;;;2.30;2.20;;;;;;;;;;5003242;28;20490;-52
2023/06/14 11:52:37;;;;;;;2.07;1.87;;;;;;;;;;5000995;28;20439;-52
2023/06/14 11:55:06;;;;;;;4.10;2.00;;;;;;;;;;5002452;28;20432;-52
2023/06/14 11:57:36;;;;;;;2.30;2.10;;;;;;;;;;4991744;28;20455;-51
2023/06/14 12:00:12;;;;;;;2.40;2.20;;;;;;;;;;5005568;28;20501;-51
2023/06/14 12:02:40;;;;;;;2.30;2.20;;;;;;;;;;5005778;28;20423;-52
2023/06/14 12:05:09;;;;;;;2.60;2.30;;;;;;;;;;4999315;28;20467;-52
2023/06/14 12:07:37;;;;;;;3.93;2.77;;;;;;;;;;4998420;28;20412;-51
2023/06/14 12:10:07;;;;;;;2.60;2.50;;;;;;;;;;5000708;28;20432;-51
2023/06/14 12:12:35;;;;;;;7.47;2.50;;;;;;;;;;5000802;28;20439;-51
2023/06/14 12:15:03;;;;;;;2.20;2.00;;;;;;;;;;5003606;28;20419;-52
2023/06/14 12:17:32;;;;;;;2.33;2.07;;;;;;;;;;5002440;28;20467;-51
2023/06/14 12:19:58;;;;;;;5.70;2.07;;;;;;;;;;4997309;28;20424;-52
2023/06/14 12:22:24;;;;;;;2.00;1.80;;;;;;;;;;5003921;28;20469;-52
2023/06/14 12:24:50;;;;;;;4.47;2.23;;;;;;;;;;4993777;28;20547;-52
2023/06/14 12:27:18;;;;;;;2.53;2.30;;;;;;;;;;5003984;28;20895;-53
2023/06/14 12:29:44;;;;;;;5.03;1.80;;;;;;;;;;5000807;28;20447;-53
2023/06/14 12:32:10;;;;;;;3.10;2.17;;;;;;;;;;5003174;28;20403;-51
2023/06/14 12:34:37;;;;;;;2.30;2.20;;;;;;;;;;5000144;28;20436;-52
2023/06/14 12:37:04;;;;;;;5.20;2.53;;;;;;;;;;5002424;28;20412;-51
2023/06/14 12:39:31;;;;;;;2.43;2.17;;;;;;;;;;4999623;28;20452;-51
2023/06/14 12:41:57;;;;;;;2.90;2.43;;;;;;;;;;5001537;28;20415;-52
2023/06/14 12:44:23;;;;;;;2.40;2.30;;;;;;;;;;5003576;28;20558;-52
2023/06/14 12:46:51;;;;;;;2.90;2.17;;;;;;;;;;4999448;28;20419;-52
2023/06/14 12:49:18;;;;;;;2.27;2.17;;;;;;;;;;5000512;28;20888;-52
2023/06/14 12:51:44;;;;;;;2.37;2.07;;;;;;;;;;4996633;28;20431;-52
2023/06/14 12:54:10;;;;;;;4.13;2.40;;;;;;;;;;5000385;28;20424;-53
2023/06/14 12:56:36;;;;;;;2.10;2.00;;;;;;;;;;5000593;28;20427;-53
2023/06/14 12:59:02;;;;;;;2.60;2.40;;;;;;;;;;5005402;28;20412;-51
2023/06/14 13:01:28;;;;;;;1.90;1.80;;;;;;;;;;5002590;28;20917;-53
2023/06/14 13:03:54;;;;;;;3.40;2.63;;;;;;;;;;4997431;28;20463;-52
2023/06/14 13:06:24;;;;;;;2.30;2.10;;;;;;;;;;4998856;28;20415;-53
2023/06/14 13:08:50;;;;;;;3.10;2.07;;;;;;;;;;5002029;28;20463;-52
2023/06/14 13:11:16;;;;;;;4.20;2.40;;;;;;;;;;5003770;28;20922;-51
2023/06/14 13:13:42;;;;;;;2.67;2.47;;;;;;;;;;5000675;28;20443;-51
2023/06/14 13:16:08;;;;;;;6.83;2.13;;;;;;;;;;5003163;28;20411;-51
2023/06/14 13:18:34;;;;;;;2.60;2.40;;;;;;;;;;4997068;28;20443;-51
2023/06/14 13:21:01;;;;;;;5.30;2.33;;;;;;;;;;5002558;28;20411;-50
2023/06/14 13:23:27;;;;;;;3.53;2.33;;;;;;;;;;5003354;28;20470;-49
2023/06/14 13:25:53;;;;;;;2.20;2.10;;;;;;;;;;4999413;28;20412;-49
2023/06/14 13:28:20;;;;;;;3.70;1.80;;;;;;;;;;5001542;28;20458;-50
2023/06/14 13:30:46;;;;;;;2.30;2.10;;;;;;;;;;5000687;28;20406;-48
2023/06/14 13:33:13;;;;;;;3.80;2.50;;;;;;;;;;4997380;28;20411;-49
2023/06/14 13:35:39;;;;;;;3.60;2.40;;;;;;;;;;5003197;28;20434;-48
2023/06/14 13:38:05;;;;;;;4.90;2.03;;;;;;;;;;4993517;28;20431;-49
2023/06/14 13:40:31;;;;;;;2.37;2.17;;;;;;;;;;5003793;28;20415;-49
2023/06/14 13:42:57;;;;;;;3.77;1.93;;;;;;;;;;4998506;28;20436;-49
2023/06/14 13:45:23;;;;;;;2.40;2.20;;;;;;;;;;4999853;28;20204;-49
2023/06/14 13:47:49;;;;;;;2.40;2.30;;;;;;;;;;5003804;28;20177;-49
2023/06/14 13:50:16;;;;;;;2.20;2.10;;;;;;;;;;4998893;28;20427;-48
2023/06/14 13:52:42;;;;;;;2.90;2.57;;;;;;;;;;5005483;28;20422;-48
2023/06/14 13:55:08;;;;;;;3.07;2.17;;;;;;;;;;5004485;28;20446;-48
2023/06/14 13:57:34;;;;;;;4.80;2.40;;;;;;;;;;4994528;28;20915;-49
2023/06/14 14:00:01;;;;;;;2.23;2.07;;;;;;;;;;4995185;28;20507;-49
2023/06/14 14:02:28;;;;;;;2.40;2.30;;;;;;;;;;4989344;28;20672;-49
2023/06/14 14:04:55;;;;;;;3.00;2.60;;;;;;;;;;4988728;28;20541;-49
2023/06/14 14:07:21;;;;;;;3.20;2.30;;;;;;;;;;5001495;28;20408;-48
2023/06/14 14:09:48;;;;;;;3.63;2.60;;;;;;;;;;5002649;28;20436;-51
2023/06/14 14:12:14;;;;;;;2.30;2.10;;;;;;;;;;5004351;28;20519;-53
2023/06/14 14:14:40;;;;;;;3.20;2.70;;;;;;;;;;5003868;28;20475;-50
2023/06/14 14:17:06;;;;;;;2.47;2.37;;;;;;;;;;4998801;28;20789;-48
2023/06/14 14:19:33;;;;;;;2.67;2.57;;;;;;;;;;5001047;28;20442;-49
2023/06/14 14:21:59;;;;;;;4.40;2.60;;;;;;;;;;5004312;28;20462;-51
2023/06/14 14:24:25;;;;;;;3.07;2.50;;;;;;;;;;5003044;28;20470;-49
2023/06/14 14:26:53;;;;;;;3.37;3.07;;;;;;;;;;5001721;28;20462;-51
2023/06/14 14:29:19;;;;;;;2.43;2.20;;;;;;;;;;4992788;28;20444;-49
2023/06/14 14:31:45;;;;;;;2.97;2.77;;;;;;;;;;4994073;28;20448;-50
2023/06/14 14:34:11;;;;;;;2.70;2.50;;;;;;;;;;4994229;28;21006;-52
2023/06/14 14:36:41;;;;;;;3.87;2.73;;;;;;;;;;5007658;28;20434;-52
2023/06/14 14:39:07;;;;;;;2.70;2.50;;;;;;;;;;4994087;28;20411;-50
2023/06/14 14:41:33;;;;;;;3.20;2.33;;;;;;;;;;5000633;28;20431;-49
2023/06/14 14:44:00;;;;;;;2.87;2.60;;;;;;;;;;5002830;28;20471;-48